createdAt,value
2022-11-13T00:00:43.349Z,97.45
2022-11-13T00:01:43.358Z,97.45
2022-11-13T00:02:43.409Z,97.35
2022-11-13T00:03:43.315Z,97.67
2022-11-13T00:04:43.304Z,97.56
2022-11-13T00:05:43.399Z,97.40
2022-11-13T00:06:43.331Z,97.50
2022-11-13T00:07:43.259Z,97.40
2022-11-13T00:08:43.262Z,97.45
2022-11-13T00:09:43.264Z,97.56
2022-11-13T00:10:43.240Z,97.45
2022-11-13T00:11:43.217Z,97.56
2022-11-13T00:12:43.205Z,97.56
2022-11-13T00:13:43.214Z,97.61
2022-11-13T00:14:43.191Z,97.40
2022-11-13T00:15:43.192Z,97.50
2022-11-13T00:16:43.155Z,96.98
2022-11-13T00:17:43.150Z,97.61
2022-11-13T00:18:43.141Z,97.50
2022-11-13T00:19:43.135Z,97.09
2022-11-13T00:20:43.154Z,97.50
2022-11-13T00:21:43.248Z,97.50
2022-11-13T00:22:43.118Z,97.34
2022-11-13T00:23:43.093Z,97.44
2022-11-13T00:24:43.081Z,97.96
2022-11-13T00:25:43.057Z,97.96
2022-11-13T00:26:43.077Z,97.44
2022-11-13T00:27:43.042Z,97.44
2022-11-13T00:28:43.033Z,97.65
2022-11-13T00:29:43.026Z,98.17
2022-11-13T00:30:43.017Z,97.61
2022-11-13T00:31:43.021Z,98.17
2022-11-13T00:32:42.986Z,97.34
2022-11-13T00:34:09.063Z,98.27
2022-11-13T00:34:48.336Z,98.17
2022-11-13T00:35:42.949Z,98.17
2022-11-13T00:36:42.976Z,98.27
2022-11-13T00:37:43.039Z,98.38
2022-11-13T00:38:42.916Z,98.27
2022-11-13T00:39:42.911Z,98.27
2022-11-13T00:40:42.897Z,98.38
2022-11-13T00:41:42.913Z,98.38
2022-11-13T00:42:42.872Z,98.27
2022-11-13T00:43:42.886Z,98.27
2022-11-13T00:44:42.883Z,98.43
2022-11-13T00:45:42.838Z,98.17
2022-11-13T00:46:42.838Z,98.17
2022-11-13T00:47:42.847Z,98.48
2022-11-13T00:48:42.845Z,98.38
2022-11-13T00:49:42.797Z,98.38
2022-11-13T00:50:42.782Z,98.38
2022-11-13T00:51:42.775Z,98.38
2022-11-13T00:52:42.790Z,98.11
2022-11-13T00:53:42.865Z,98.43
2022-11-13T00:54:42.737Z,97.86
2022-11-13T00:55:42.737Z,97.96
2022-11-13T00:56:42.726Z,98.07
2022-11-13T00:57:42.737Z,98.01
2022-11-13T00:58:42.705Z,98.22
2022-11-13T00:59:42.677Z,97.86
2022-11-13T01:00:42.668Z,97.80
2022-11-13T01:01:42.720Z,98.32
2022-11-13T01:02:42.647Z,98.01
2022-11-13T01:03:42.663Z,98.11
2022-11-13T01:04:42.645Z,98.32
2022-11-13T01:05:42.624Z,98.11
2022-11-13T01:06:42.649Z,98.01
2022-11-13T01:07:42.592Z,98.01
2022-11-13T01:08:42.614Z,98.32
2022-11-13T01:09:42.688Z,98.53
2022-11-13T01:10:42.566Z,98.22
2022-11-13T01:11:42.583Z,98.22
2022-11-13T01:12:42.537Z,98.11
2022-11-13T01:13:42.530Z,98.22
2022-11-13T01:14:42.526Z,98.43
2022-11-13T01:15:42.544Z,98.43
2022-11-13T01:16:42.490Z,99.05
2022-11-13T01:17:42.501Z,98.94
2022-11-13T01:18:42.467Z,98.53
2022-11-13T01:19:42.451Z,98.68
2022-11-13T01:20:42.476Z,98.88
2022-11-13T01:21:42.461Z,98.68
2022-11-13T01:22:42.429Z,98.78
2022-11-13T01:23:42.430Z,98.78
2022-11-13T01:24:42.400Z,98.78
2022-11-13T01:25:42.505Z,98.88
2022-11-13T01:26:42.383Z,98.88
2022-11-13T01:27:42.373Z,98.88
2022-11-13T01:28:42.384Z,98.88
2022-11-13T01:29:42.373Z,98.88
2022-11-13T01:30:42.336Z,98.88
2022-11-13T01:31:42.320Z,98.88
2022-11-13T01:32:42.332Z,99.10
2022-11-13T01:33:42.324Z,98.88
2022-11-13T01:34:42.299Z,98.68
2022-11-13T01:35:42.277Z,99.10
2022-11-13T01:36:42.275Z,98.68
2022-11-13T01:37:42.281Z,99.14
2022-11-13T01:38:42.254Z,98.41
2022-11-13T01:39:42.229Z,98.41
2022-11-13T01:40:42.225Z,98.62
2022-11-13T01:41:42.327Z,98.62
2022-11-13T01:42:42.258Z,98.62
2022-11-13T01:43:42.193Z,98.72
2022-11-13T01:44:42.189Z,98.52
2022-11-13T01:45:42.207Z,98.72
2022-11-13T01:46:42.158Z,98.62
2022-11-13T01:47:42.146Z,98.62
2022-11-13T01:48:42.131Z,98.62
2022-11-13T01:49:42.133Z,98.52
2022-11-13T01:50:42.108Z,98.62
2022-11-13T01:51:42.137Z,98.83
2022-11-13T01:52:42.099Z,98.83
2022-11-13T01:53:42.085Z,98.83
2022-11-13T01:54:42.062Z,98.77
2022-11-13T01:55:42.092Z,98.93
2022-11-13T01:56:42.044Z,98.93
2022-11-13T01:57:42.171Z,98.41
2022-11-13T01:58:42.020Z,98.62
2022-11-13T01:59:42.020Z,98.72
2022-11-13T02:00:42.004Z,98.72
2022-11-13T02:01:42.119Z,98.83
2022-11-13T02:02:42.006Z,98.35
2022-11-13T02:03:41.967Z,99.14
2022-11-13T02:04:41.958Z,99.04
2022-11-13T02:05:41.964Z,99.04
2022-11-13T02:06:41.964Z,98.56
2022-11-13T02:07:41.943Z,99.29
2022-11-13T02:08:41.933Z,99.08
2022-11-13T02:09:41.891Z,99.08
2022-11-13T02:10:41.884Z,98.97
2022-11-13T02:11:41.881Z,99.08
2022-11-13T02:12:41.870Z,99.14
2022-11-13T02:13:41.984Z,99.04
2022-11-13T02:14:41.934Z,99.29
2022-11-13T02:15:41.854Z,99.18
2022-11-13T02:16:41.823Z,99.14
2022-11-13T02:17:41.839Z,99.14
2022-11-13T02:18:41.825Z,99.14
2022-11-13T02:19:41.790Z,99.18
2022-11-13T02:20:41.782Z,99.08
2022-11-13T02:21:41.829Z,99.08
2022-11-13T02:22:41.788Z,99.18
2022-11-13T02:23:41.762Z,99.18
2022-11-13T02:24:45.089Z,99.40
2022-11-13T02:25:41.775Z,99.08
2022-11-13T02:26:41.711Z,99.81
2022-11-13T02:27:41.692Z,99.08
2022-11-13T02:28:41.685Z,99.99
2022-11-13T02:29:41.845Z,99.85
2022-11-13T02:30:41.668Z,99.18
2022-11-13T02:31:41.648Z,99.13
2022-11-13T02:32:41.645Z,99.44
2022-11-13T02:33:41.625Z,99.50
2022-11-13T02:34:41.629Z,99.54
2022-11-13T02:35:41.629Z,99.50
2022-11-13T02:36:41.638Z,99.50
2022-11-13T02:37:41.642Z,99.60
2022-11-13T02:38:41.605Z,99.71
2022-11-13T02:39:41.597Z,99.71
2022-11-13T02:40:41.589Z,99.40
2022-11-13T02:41:41.537Z,99.54
2022-11-13T02:42:41.534Z,99.54
2022-11-13T02:43:41.910Z,99.54
2022-11-13T02:44:41.559Z,99.54
2022-11-13T02:45:41.651Z,99.75
2022-11-13T02:46:41.676Z,99.60
2022-11-13T02:47:41.513Z,99.71
2022-11-13T02:48:41.459Z,99.50
2022-11-13T02:49:41.454Z,99.60
2022-11-13T02:50:41.484Z,99.40
2022-11-13T02:51:41.429Z,99.40
2022-11-13T02:52:41.475Z,99.50
2022-11-13T02:53:41.409Z,99.40
2022-11-13T02:54:41.435Z,99.40
2022-11-13T02:55:41.409Z,99.18
2022-11-13T02:56:41.407Z,99.60
2022-11-13T02:57:41.406Z,99.75
2022-11-13T02:58:41.367Z,99.75
2022-11-13T02:59:41.352Z,99.65
2022-11-13T03:00:41.374Z,99.65
2022-11-13T03:01:41.542Z,99.75
2022-11-13T03:02:41.336Z,99.85
2022-11-13T03:03:57.055Z,99.85
2022-11-13T03:05:10.796Z,99.75
2022-11-13T03:05:42.295Z,99.75
2022-11-13T03:06:41.281Z,99.85
2022-11-13T03:07:41.258Z,99.85
2022-11-13T03:08:41.287Z,99.75
2022-11-13T03:09:41.233Z,99.85
2022-11-13T03:10:41.237Z,99.69
2022-11-13T03:11:41.255Z,99.85
2022-11-13T03:12:41.197Z,99.80
2022-11-13T03:13:41.176Z,99.90
2022-11-13T03:14:41.250Z,99.69
2022-11-13T03:15:48.299Z,99.80
2022-11-13T03:16:41.153Z,99.69
2022-11-13T03:17:41.270Z,99.69
2022-11-13T03:18:41.178Z,99.69
2022-11-13T03:19:41.153Z,99.69
2022-11-13T03:20:41.165Z,99.80
2022-11-13T03:21:41.107Z,99.95
2022-11-13T03:22:41.084Z,99.69
2022-11-13T03:23:41.100Z,99.69
2022-11-13T03:24:41.059Z,99.90
2022-11-13T03:25:41.095Z,99.99
2022-11-13T03:26:41.066Z,99.99
2022-11-13T03:27:41.068Z,99.99
2022-11-13T03:28:41.035Z,99.99
2022-11-13T03:29:41.004Z,99.99
2022-11-13T03:30:41.032Z,99.99
2022-11-13T03:31:41.007Z,99.99
2022-11-13T03:32:40.975Z,99.99
2022-11-13T03:33:41.066Z,99.99
2022-11-13T03:34:40.972Z,99.99
2022-11-13T03:35:46.531Z,99.99
2022-11-13T03:36:41.944Z,99.99
2022-11-13T03:37:40.954Z,99.99
2022-11-13T03:38:40.911Z,99.99
2022-11-13T03:42:00.359Z,99.99
2022-11-13T03:43:00.336Z,99.99
2022-11-13T03:44:00.336Z,99.99
2022-11-13T03:45:00.320Z,99.99
2022-11-13T03:46:00.717Z,99.99
2022-11-13T03:47:00.315Z,99.99
2022-11-13T03:48:00.279Z,99.99
2022-11-13T03:49:00.377Z,99.99
2022-11-13T03:50:00.266Z,99.99
2022-11-13T03:51:00.283Z,99.99
2022-11-13T03:52:00.242Z,99.99
2022-11-13T03:53:00.227Z,99.99
2022-11-13T03:54:00.226Z,99.99
2022-11-13T03:55:00.220Z,99.99
2022-11-13T03:56:00.229Z,99.99
2022-11-13T03:57:00.178Z,99.99
2022-11-13T03:58:00.182Z,99.99
2022-11-13T03:59:00.211Z,99.99
2022-11-13T04:00:00.170Z,99.99
2022-11-13T04:01:00.173Z,99.95
2022-11-13T04:02:00.223Z,99.99
2022-11-13T04:03:00.113Z,99.99
2022-11-13T04:04:00.149Z,99.99
2022-11-13T04:05:00.212Z,99.99
2022-11-13T04:06:00.127Z,99.99
2022-11-13T04:07:00.171Z,99.99
2022-11-13T04:08:00.071Z,99.99
2022-11-13T04:09:00.061Z,99.99
2022-11-13T04:10:00.050Z,99.99
2022-11-13T04:11:00.068Z,99.99
2022-11-13T04:12:00.009Z,99.99
2022-11-13T04:13:00.086Z,99.93
2022-11-13T04:14:00.131Z,99.99
2022-11-13T04:14:59.977Z,99.99
2022-11-13T04:15:59.966Z,99.99
2022-11-13T04:16:59.962Z,99.99
2022-11-13T04:17:59.951Z,99.99
2022-11-13T04:18:59.959Z,99.89
2022-11-13T04:19:59.935Z,99.89
2022-11-13T04:21:00.036Z,99.99
2022-11-13T04:21:59.900Z,99.99
2022-11-13T04:22:59.958Z,99.99
2022-11-13T04:23:59.913Z,99.99
2022-11-13T04:24:59.863Z,99.99
2022-11-13T04:25:59.885Z,99.99
2022-11-13T04:26:59.870Z,99.99
2022-11-13T04:27:59.844Z,99.99
2022-11-13T04:28:59.822Z,99.99
2022-11-13T04:29:59.839Z,99.99
2022-11-13T04:30:59.809Z,99.99
2022-11-13T04:31:59.846Z,99.99
2022-11-13T04:32:59.849Z,99.99
2022-11-13T04:33:59.834Z,99.99
2022-11-13T04:34:59.761Z,99.99
2022-11-13T04:35:59.767Z,99.99
2022-11-13T04:36:59.931Z,99.79
2022-11-13T04:37:59.740Z,99.99
2022-11-13T04:38:59.728Z,99.99
2022-11-13T04:39:59.706Z,99.93
2022-11-13T04:40:59.709Z,99.93
2022-11-13T04:41:59.680Z,99.89
2022-11-13T04:42:59.667Z,99.99
2022-11-13T04:43:59.670Z,99.99
2022-11-13T04:44:59.653Z,99.93
2022-11-13T04:45:59.676Z,99.89
2022-11-13T04:47:00.623Z,99.99
2022-11-13T04:47:59.615Z,99.99
2022-11-13T04:48:59.623Z,99.89
2022-11-13T04:49:59.599Z,99.99
2022-11-13T04:50:59.651Z,99.99
2022-11-13T04:51:59.567Z,99.99
2022-11-13T04:52:59.698Z,99.99
2022-11-13T04:53:59.547Z,99.99
2022-11-13T04:54:59.546Z,99.99
2022-11-13T04:55:59.566Z,99.99
2022-11-13T04:56:59.672Z,99.99
2022-11-13T04:57:59.510Z,99.99
2022-11-13T04:58:59.554Z,99.99
2022-11-13T04:59:59.489Z,99.99
2022-11-13T05:00:59.475Z,99.99
2022-11-13T05:01:59.533Z,99.99
2022-11-13T05:02:59.462Z,99.99
2022-11-13T05:03:59.438Z,99.99
2022-11-13T05:05:04.639Z,99.99
2022-11-13T05:05:59.414Z,99.99
2022-11-13T05:06:59.497Z,99.99
2022-11-13T05:07:59.419Z,99.99
2022-11-13T05:08:59.498Z,99.99
2022-11-13T05:09:59.370Z,99.99
2022-11-13T05:10:59.376Z,99.99
2022-11-13T05:11:59.376Z,99.99
2022-11-13T05:12:59.391Z,99.99
2022-11-13T05:15:47.332Z,99.99
2022-11-13T05:16:10.052Z,99.99
2022-11-13T05:17:10.051Z,99.99
2022-11-13T05:18:10.026Z,99.99
2022-11-13T05:19:10.010Z,99.99
2022-11-13T05:20:09.998Z,99.99
2022-11-13T05:21:09.988Z,99.99
2022-11-13T05:22:10.008Z,99.99
2022-11-13T05:23:09.977Z,99.99
2022-11-13T05:24:10.091Z,99.99
2022-11-13T05:25:09.939Z,99.99
2022-11-13T05:26:09.932Z,99.99
2022-11-13T05:27:14.296Z,99.99
2022-11-13T05:28:10.918Z,99.99
2022-11-13T05:29:09.903Z,99.99
2022-11-13T05:30:09.966Z,99.99
2022-11-13T05:31:09.876Z,99.99
2022-11-13T05:32:09.860Z,99.99
2022-11-13T05:33:09.851Z,99.99
2022-11-13T05:34:09.876Z,99.99
2022-11-13T05:35:09.875Z,99.99
2022-11-13T05:36:09.825Z,99.99
2022-11-13T05:37:09.806Z,99.99
2022-11-13T05:38:09.795Z,99.99
2022-11-13T05:39:09.793Z,99.99
2022-11-13T05:40:09.920Z,99.99
2022-11-13T05:41:09.797Z,99.99
2022-11-13T05:42:09.786Z,99.99
2022-11-13T05:43:09.742Z,99.99
2022-11-13T05:44:09.732Z,99.99
2022-11-13T05:45:09.743Z,99.99
2022-11-13T05:46:09.728Z,99.99
2022-11-13T05:47:09.724Z,99.99
2022-11-13T05:48:09.689Z,99.99
2022-11-13T05:49:09.673Z,99.99
2022-11-13T05:50:09.700Z,99.99
2022-11-13T05:51:09.658Z,99.99
2022-11-13T05:52:09.676Z,99.99
2022-11-13T05:53:09.626Z,99.99
2022-11-13T05:54:09.630Z,99.99
2022-11-13T05:55:09.612Z,99.99
2022-11-13T05:56:09.718Z,99.99
2022-11-13T05:57:09.625Z,99.99
2022-11-13T05:58:09.583Z,99.99
2022-11-13T05:59:09.559Z,99.99
2022-11-13T06:00:09.549Z,99.99
2022-11-13T06:01:09.545Z,99.99
2022-11-13T06:02:09.556Z,99.99
2022-11-13T06:03:09.557Z,99.99
2022-11-13T06:04:09.520Z,99.99
2022-11-13T06:05:09.511Z,99.99
2022-11-13T06:06:09.484Z,99.99
2022-11-13T06:07:09.517Z,99.99
2022-11-13T06:08:09.457Z,99.99
2022-11-13T06:09:09.486Z,99.99
2022-11-13T06:10:09.477Z,99.99
2022-11-13T06:11:09.429Z,99.99
2022-11-13T06:12:09.566Z,99.99
2022-11-13T06:13:09.423Z,99.99
2022-11-13T06:14:09.392Z,99.99
2022-11-13T06:15:09.425Z,99.99
2022-11-13T06:16:09.375Z,99.99
2022-11-13T06:17:09.372Z,99.99
2022-11-13T06:18:09.352Z,99.99
2022-11-13T06:19:09.358Z,99.99
2022-11-13T06:20:09.333Z,99.99
2022-11-13T06:21:09.324Z,99.99
2022-11-13T06:22:09.307Z,99.99
2022-11-13T06:23:09.296Z,99.99
2022-11-13T06:24:09.288Z,99.99
2022-11-13T06:25:09.297Z,99.99
2022-11-13T06:26:09.303Z,99.99
2022-11-13T06:27:09.257Z,99.99
2022-11-13T06:28:09.350Z,99.99
2022-11-13T06:29:09.226Z,99.99
2022-11-13T06:30:09.239Z,99.99
2022-11-13T06:31:09.204Z,99.99
2022-11-13T06:32:09.219Z,99.99
2022-11-13T06:33:09.228Z,99.99
2022-11-13T06:34:09.176Z,99.99
2022-11-13T06:35:09.161Z,99.99
2022-11-13T06:36:09.172Z,99.99
2022-11-13T06:37:09.166Z,99.99
2022-11-13T06:38:09.142Z,99.99
2022-11-13T06:39:09.300Z,99.99
2022-11-13T06:40:09.106Z,99.99
2022-11-13T06:41:09.090Z,99.99
2022-11-13T06:42:09.086Z,99.99
2022-11-13T06:43:09.137Z,99.99
2022-11-13T06:44:09.193Z,99.99
2022-11-13T06:45:09.090Z,99.99
2022-11-13T06:46:09.050Z,99.99
2022-11-13T06:47:09.045Z,99.99
2022-11-13T06:48:09.058Z,99.99
2022-11-13T06:49:09.024Z,99.99
2022-11-13T06:50:09.022Z,99.99
2022-11-13T06:51:08.997Z,99.99
2022-11-13T06:52:08.978Z,99.99
2022-11-13T06:53:08.964Z,99.99
2022-11-13T06:54:08.984Z,99.99
2022-11-13T06:55:08.936Z,99.99
2022-11-13T06:56:09.063Z,99.99
2022-11-13T06:57:08.955Z,99.99
2022-11-13T06:58:08.946Z,99.99
2022-11-13T06:59:08.920Z,99.99
2022-11-13T07:00:08.992Z,99.99
2022-11-13T07:01:09.018Z,99.99
2022-11-13T07:02:08.886Z,99.99
2022-11-13T07:03:08.851Z,99.99
2022-11-13T07:04:08.838Z,99.99
2022-11-13T07:05:08.829Z,99.99
2022-11-13T07:06:08.850Z,99.99
2022-11-13T07:07:08.840Z,99.99
2022-11-13T07:08:08.791Z,99.99
2022-11-13T07:09:08.778Z,99.99
2022-11-13T07:10:08.785Z,99.99
2022-11-13T07:11:08.793Z,99.99
2022-11-13T07:12:08.748Z,99.99
2022-11-13T07:13:08.752Z,99.99
2022-11-13T07:14:08.846Z,99.99
2022-11-13T07:15:08.742Z,99.99
2022-11-13T07:16:16.356Z,99.99
2022-11-13T07:17:10.656Z,99.99
2022-11-13T07:18:08.683Z,99.99
2022-11-13T07:19:08.702Z,99.99
2022-11-13T07:20:08.672Z,99.99
2022-11-13T07:21:08.685Z,99.99
2022-11-13T07:22:08.638Z,99.99
2022-11-13T07:23:08.622Z,99.99
2022-11-13T07:24:11.541Z,99.99
2022-11-13T07:25:08.633Z,99.99
2022-11-13T07:26:08.591Z,99.99
2022-11-13T07:27:08.586Z,99.99
2022-11-13T07:28:08.577Z,99.99
2022-11-13T07:29:08.562Z,99.99
2022-11-13T07:30:08.544Z,99.99
2022-11-13T07:31:08.574Z,99.99
2022-11-13T07:32:08.640Z,99.99
2022-11-13T07:33:08.534Z,99.99
2022-11-13T07:34:08.503Z,99.99
2022-11-13T07:35:08.516Z,99.99
2022-11-13T07:36:08.498Z,99.99
2022-11-13T07:37:08.468Z,99.99
2022-11-13T07:38:08.457Z,99.99
2022-11-13T07:39:08.559Z,99.99
2022-11-13T07:40:08.468Z,99.99
2022-11-13T07:41:08.428Z,99.99
2022-11-13T07:42:08.419Z,99.99
2022-11-13T07:43:08.408Z,99.99
2022-11-13T07:44:09.593Z,99.99
2022-11-13T07:45:08.407Z,99.99
2022-11-13T07:46:08.416Z,99.99
2022-11-13T07:47:08.370Z,99.99
2022-11-13T07:48:08.456Z,99.99
2022-11-13T07:49:08.355Z,99.99
2022-11-13T07:50:10.885Z,99.99
2022-11-13T07:51:08.311Z,99.99
2022-11-13T07:52:08.339Z,99.99
2022-11-13T07:53:08.319Z,99.99
2022-11-13T07:54:08.278Z,99.99
2022-11-13T07:55:08.274Z,99.99
2022-11-13T07:56:08.283Z,99.99
2022-11-13T07:57:08.274Z,99.99
2022-11-13T07:58:08.234Z,99.99
2022-11-13T07:59:08.223Z,99.99
2022-11-13T08:00:08.251Z,99.99
2022-11-13T08:01:08.221Z,99.99
2022-11-13T08:02:08.190Z,99.99
2022-11-13T08:03:08.232Z,99.99
2022-11-13T08:04:08.277Z,99.99
2022-11-13T08:05:08.162Z,99.99
2022-11-13T08:06:08.152Z,99.99
2022-11-13T08:07:08.168Z,99.99
2022-11-13T08:08:08.154Z,99.99
2022-11-13T08:09:08.117Z,99.99
2022-11-13T08:10:08.125Z,99.99
2022-11-13T08:11:08.092Z,99.99
2022-11-13T08:12:08.081Z,99.99
2022-11-13T08:13:08.087Z,99.99
2022-11-13T08:14:08.063Z,99.99
2022-11-13T08:15:12.206Z,99.99
2022-11-13T08:16:09.100Z,99.99
2022-11-13T08:17:08.020Z,99.99
2022-11-13T08:18:08.034Z,99.99
2022-11-13T08:19:08.012Z,99.99
2022-11-13T08:20:08.098Z,99.99
2022-11-13T08:21:13.472Z,99.99
2022-11-13T08:22:08.968Z,99.99
2022-11-13T08:23:07.988Z,99.99
2022-11-13T08:24:07.951Z,99.99
2022-11-13T08:25:07.933Z,99.99
2022-11-13T08:26:07.926Z,99.99
2022-11-13T08:27:07.918Z,99.99
2022-11-13T08:28:12.847Z,99.99
2022-11-13T08:29:07.928Z,99.99
2022-11-13T08:30:07.877Z,99.99
2022-11-13T08:31:07.864Z,99.99
2022-11-13T08:32:07.866Z,99.99
2022-11-13T08:33:07.842Z,99.99
2022-11-13T08:34:07.842Z,99.99
2022-11-13T08:35:07.843Z,99.99
2022-11-13T08:36:07.921Z,99.99
2022-11-13T08:37:07.827Z,99.99
2022-11-13T08:38:07.802Z,99.99
2022-11-13T08:39:07.779Z,99.99
2022-11-13T08:40:07.767Z,99.99
2022-11-13T08:41:09.590Z,99.99
2022-11-13T08:42:07.773Z,99.99
2022-11-13T08:43:07.751Z,99.99
2022-11-13T08:44:07.746Z,99.99
2022-11-13T08:45:07.705Z,99.99
2022-11-13T08:46:07.725Z,99.99
2022-11-13T08:47:07.691Z,99.99
2022-11-13T08:48:07.683Z,99.99
2022-11-13T08:49:07.664Z,99.99
2022-11-13T08:50:07.676Z,99.99
2022-11-13T08:51:07.654Z,99.99
2022-11-13T08:52:07.744Z,99.99
2022-11-13T08:53:07.628Z,99.99
2022-11-13T08:54:07.610Z,99.99
2022-11-13T08:55:07.651Z,99.99
2022-11-13T08:56:07.618Z,99.99
2022-11-13T08:57:07.574Z,99.99
2022-11-13T08:58:07.624Z,99.98
2022-11-13T08:59:07.553Z,99.99
2022-11-13T09:00:07.541Z,99.99
2022-11-13T09:01:07.533Z,99.72
2022-11-13T09:02:07.562Z,99.99
2022-11-13T09:03:07.653Z,99.99
2022-11-13T09:04:07.568Z,99.62
2022-11-13T09:05:07.494Z,99.16
2022-11-13T09:06:07.575Z,98.22
2022-11-13T09:07:07.655Z,98.02
2022-11-13T09:08:07.595Z,97.14
2022-11-13T09:09:07.450Z,97.35
2022-11-13T09:10:07.605Z,97.14
2022-11-13T09:11:07.453Z,97.00
2022-11-13T09:12:07.422Z,96.79
2022-11-13T09:13:07.420Z,94.72
2022-11-13T09:14:07.410Z,94.89
2022-11-13T09:15:07.379Z,94.47
2022-11-13T09:16:07.372Z,94.68
2022-11-13T09:17:07.393Z,93.85
2022-11-13T09:18:07.372Z,93.91
2022-11-13T09:19:07.328Z,93.29
2022-11-13T09:20:09.957Z,93.29
2022-11-13T09:21:08.312Z,93.29
2022-11-13T09:22:07.324Z,93.29
2022-11-13T09:23:07.307Z,93.04
2022-11-13T09:24:07.402Z,92.93
2022-11-13T09:25:07.272Z,93.14
2022-11-13T09:26:07.258Z,92.32
2022-11-13T09:27:07.243Z,93.04
2022-11-13T09:28:07.256Z,93.10
2022-11-13T09:29:07.275Z,92.27
2022-11-13T09:30:07.208Z,92.07
2022-11-13T09:31:07.202Z,92.38
2022-11-13T09:32:07.188Z,92.44
2022-11-13T09:33:07.194Z,92.33
2022-11-13T09:34:07.159Z,92.44
2022-11-13T09:35:07.159Z,91.20
2022-11-13T09:36:07.169Z,91.16
2022-11-13T09:37:07.128Z,91.20
2022-11-13T09:38:11.072Z,90.12
2022-11-13T09:39:07.138Z,90.33
2022-11-13T09:40:07.245Z,90.53
2022-11-13T09:41:07.079Z,90.39
2022-11-13T09:42:07.100Z,89.77
2022-11-13T09:43:07.064Z,89.46
2022-11-13T09:44:07.063Z,88.74
2022-11-13T09:45:07.034Z,88.32
2022-11-13T09:46:07.044Z,88.80
2022-11-13T09:47:07.042Z,88.80
2022-11-13T09:48:07.019Z,88.49
2022-11-13T09:49:06.997Z,88.24
2022-11-13T09:50:07.000Z,88.35
2022-11-13T09:51:06.965Z,87.93
2022-11-13T09:52:07.008Z,87.83
2022-11-13T09:53:06.980Z,87.48
2022-11-13T09:54:06.939Z,87.38
2022-11-13T09:55:06.923Z,87.27
2022-11-13T09:56:07.053Z,86.76
2022-11-13T09:57:06.903Z,86.87
2022-11-13T09:58:06.904Z,86.61
2022-11-13T09:59:06.903Z,86.00
2022-11-13T10:00:06.876Z,86.61
2022-11-13T10:01:06.948Z,86.41
2022-11-13T10:02:06.845Z,86.82
2022-11-13T10:03:06.831Z,86.16
2022-11-13T10:04:08.880Z,85.86
2022-11-13T10:05:06.813Z,85.65
2022-11-13T10:06:06.821Z,84.89
2022-11-13T10:07:06.802Z,84.99
2022-11-13T10:08:06.783Z,84.64
2022-11-13T10:09:06.796Z,84.23
2022-11-13T10:10:06.775Z,83.11
2022-11-13T10:11:06.771Z,83.99
2022-11-13T10:12:06.898Z,83.48
2022-11-13T10:13:06.726Z,83.06
2022-11-13T10:14:06.717Z,82.00
2022-11-13T10:15:06.766Z,81.18
2022-11-13T10:16:06.742Z,80.15
2022-11-13T10:17:06.681Z,79.39
2022-11-13T10:18:06.672Z,80.15
2022-11-13T10:19:06.659Z,79.91
2022-11-13T10:20:06.683Z,79.29
2022-11-13T10:21:09.578Z,79.08
2022-11-13T10:22:31.436Z,78.88
2022-11-13T10:23:07.626Z,78.64
2022-11-13T10:24:10.443Z,79.15
2022-11-13T10:25:07.596Z,79.36
2022-11-13T10:26:06.584Z,78.12
2022-11-13T10:27:06.591Z,78.53
2022-11-13T10:28:27.975Z,78.29
2022-11-13T10:29:07.597Z,78.19
2022-11-13T10:30:06.618Z,79.01
2022-11-13T10:31:06.556Z,78.70
2022-11-13T10:32:06.512Z,77.26
2022-11-13T10:33:06.534Z,76.65
2022-11-13T10:34:06.492Z,76.92
2022-11-13T10:35:06.469Z,76.92
2022-11-13T10:36:06.652Z,76.41
2022-11-13T10:37:06.471Z,76.00
2022-11-13T10:38:08.535Z,76.92
2022-11-13T10:39:06.443Z,76.99
2022-11-13T10:40:06.411Z,77.50
2022-11-13T10:41:06.400Z,76.85
2022-11-13T10:42:06.388Z,76.85
2022-11-13T10:43:06.416Z,76.85
2022-11-13T10:44:06.518Z,76.95
2022-11-13T10:45:12.043Z,77.33
2022-11-13T10:46:06.350Z,77.53
2022-11-13T10:47:06.362Z,76.31
2022-11-13T10:48:06.334Z,77.02
2022-11-13T10:49:06.319Z,76.81
2022-11-13T10:50:06.333Z,76.20
2022-11-13T10:51:06.286Z,76.61
2022-11-13T10:52:11.365Z,75.86
2022-11-13T10:53:07.284Z,75.96
2022-11-13T10:54:06.261Z,75.89
2022-11-13T10:55:06.256Z,76.06
2022-11-13T10:56:06.239Z,76.06
2022-11-13T10:57:06.333Z,74.63
2022-11-13T10:58:06.276Z,73.44
2022-11-13T10:59:06.193Z,73.30
2022-11-13T11:00:06.303Z,73.85
2022-11-13T11:01:06.216Z,73.85
2022-11-13T11:02:06.167Z,73.71
2022-11-13T11:03:06.181Z,74.84
2022-11-13T11:04:06.139Z,74.02
2022-11-13T11:05:06.130Z,74.22
2022-11-13T11:06:06.124Z,73.57
2022-11-13T11:07:19.684Z,74.19
2022-11-13T11:08:07.144Z,72.96
2022-11-13T11:09:06.088Z,73.03
2022-11-13T11:10:06.082Z,73.13
2022-11-13T11:11:06.062Z,71.70
2022-11-13T11:12:06.062Z,71.90
2022-11-13T11:13:06.070Z,72.52
2022-11-13T11:15:16.946Z,71.39
2022-11-13T11:16:16.731Z,71.15
2022-11-13T11:17:16.736Z,72.28
2022-11-13T11:18:16.703Z,71.42
2022-11-13T11:19:16.691Z,71.01
2022-11-13T11:20:16.787Z,70.92
2022-11-13T11:21:17.732Z,70.10
2022-11-13T11:22:16.680Z,70.27
2022-11-13T11:23:16.682Z,70.27
2022-11-13T11:24:16.712Z,70.68
2022-11-13T11:25:16.665Z,70.68
2022-11-13T11:26:16.785Z,70.78
2022-11-13T11:27:16.717Z,70.27
2022-11-13T11:28:16.603Z,68.94
2022-11-13T11:29:16.609Z,69.73
2022-11-13T11:30:16.803Z,69.56
2022-11-13T11:31:16.698Z,68.23
2022-11-13T11:32:16.614Z,69.15
2022-11-13T11:33:16.617Z,69.73
2022-11-13T11:34:16.568Z,69.32
2022-11-13T11:35:16.550Z,69.62
2022-11-13T11:36:16.538Z,69.62
2022-11-13T11:37:16.530Z,69.42
2022-11-13T11:38:16.482Z,69.21
2022-11-13T11:39:16.476Z,69.82
2022-11-13T11:40:16.491Z,69.62
2022-11-13T11:41:17.152Z,69.73
2022-11-13T11:42:16.463Z,69.79
2022-11-13T11:43:16.433Z,69.79
2022-11-13T11:44:16.477Z,68.80
2022-11-13T11:45:16.439Z,68.77
2022-11-13T11:46:16.416Z,68.98
2022-11-13T11:47:16.492Z,68.98
2022-11-13T11:48:16.427Z,69.29
2022-11-13T11:49:16.383Z,68.57
2022-11-13T11:50:16.368Z,69.49
2022-11-13T11:51:16.333Z,69.69
2022-11-13T11:52:16.404Z,69.38
2022-11-13T11:53:16.337Z,69.90
2022-11-13T11:54:16.337Z,69.86
2022-11-13T11:55:16.293Z,69.66
2022-11-13T11:56:16.278Z,70.07
2022-11-13T11:57:16.350Z,70.07
2022-11-13T11:58:16.267Z,69.76
2022-11-13T11:59:16.333Z,69.35
2022-11-13T12:00:16.235Z,69.05
2022-11-13T12:01:16.229Z,69.56
2022-11-13T12:02:16.237Z,70.27
2022-11-13T12:03:16.312Z,70.48
2022-11-13T12:04:16.199Z,71.39
2022-11-13T12:05:19.941Z,71.91
2022-11-13T12:06:16.199Z,72.41
2022-11-13T12:07:16.272Z,73.13
2022-11-13T12:08:16.171Z,73.33
2022-11-13T12:09:16.424Z,73.13
2022-11-13T12:10:16.140Z,73.50
2022-11-13T12:11:16.151Z,74.45
2022-11-13T12:12:16.132Z,73.74
2022-11-13T12:13:16.107Z,73.81
2022-11-13T12:14:16.202Z,74.21
2022-11-13T12:15:16.156Z,72.72
2022-11-13T12:16:19.860Z,73.84
2022-11-13T12:17:17.413Z,74.05
2022-11-13T12:18:16.068Z,74.21
2022-11-13T12:19:16.161Z,73.91
2022-11-13T12:20:16.041Z,72.99
2022-11-13T12:21:16.010Z,73.10
2022-11-13T12:22:16.046Z,73.94
2022-11-13T12:23:15.996Z,73.19
2022-11-13T12:24:15.972Z,73.71
2022-11-13T12:25:15.975Z,73.94
2022-11-13T12:26:15.967Z,73.40
2022-11-13T12:27:15.933Z,73.84
2022-11-13T12:28:15.930Z,74.11
2022-11-13T12:29:16.000Z,74.01
2022-11-13T12:30:15.908Z,74.42
2022-11-13T12:31:15.909Z,74.01
2022-11-13T12:32:15.887Z,74.42
2022-11-13T12:33:15.867Z,73.40
2022-11-13T12:34:15.877Z,74.11
2022-11-13T12:35:15.955Z,73.50
2022-11-13T12:36:15.839Z,72.99
2022-11-13T12:37:15.848Z,73.50
2022-11-13T12:38:15.819Z,72.99
2022-11-13T12:39:15.808Z,73.67
2022-11-13T12:40:15.806Z,73.16
2022-11-13T12:41:15.799Z,73.16
2022-11-13T12:42:15.780Z,73.16
2022-11-13T12:43:15.761Z,73.47
2022-11-13T12:44:15.743Z,72.86
2022-11-13T12:45:15.734Z,72.69
2022-11-13T12:46:15.747Z,72.55
2022-11-13T12:47:15.712Z,72.55
2022-11-13T12:48:15.703Z,73.06
2022-11-13T12:49:15.696Z,72.24
2022-11-13T12:50:15.682Z,72.34
2022-11-13T12:51:15.804Z,72.69
2022-11-13T12:52:15.656Z,72.79
2022-11-13T12:53:15.652Z,73.50
2022-11-13T12:54:15.651Z,73.06
2022-11-13T12:55:15.654Z,73.30
2022-11-13T12:56:15.635Z,73.40
2022-11-13T12:57:15.601Z,73.06